sensor_id;sensor_type;location;lat;lon;timestamp;pressure;altitude;pressure_sealevel;temperature;humidity
71778;BME280;59609;52.430;4.668;2023-07-02T00:01:45;100710.34;;;16.63;75.80
71778;BME280;59609;52.430;4.668;2023-07-02T00:04:12;100727.25;;;16.68;76.11
71778;BME280;59609;52.430;4.668;2023-07-02T00:06:44;100686.69;;;16.39;77.56
71778;BME280;59609;52.430;4.668;2023-07-02T00:09:10;100720.34;;;16.51;79.06
71778;BME280;59609;52.430;4.668;2023-07-02T00:11:40;100699.50;;;16.27;79.09
71778;BME280;59609;52.430;4.668;2023-07-02T00:14:07;100736.47;;;16.28;81.47
71778;BME280;59609;52.430;4.668;2023-07-02T00:16:33;100701.81;;;16.17;81.71
71778;BME280;59609;52.430;4.668;2023-07-02T00:18:59;100679.72;;;16.09;82.12
71778;BME280;59609;52.430;4.668;2023-07-02T00:21:25;100660.19;;;15.89;83.15
71778;BME280;59609;52.430;4.668;2023-07-02T00:23:54;100662.97;;;15.89;84.41
71778;BME280;59609;52.430;4.668;2023-07-02T00:26:25;100679.03;;;15.94;84.64
71778;BME280;59609;52.430;4.668;2023-07-02T00:28:52;100665.88;;;15.75;85.86
71778;BME280;59609;52.430;4.668;2023-07-02T00:31:18;100689.78;;;16.04;85.08
71778;BME280;59609;52.430;4.668;2023-07-02T00:33:43;100661.88;;;15.84;85.28
71778;BME280;59609;52.430;4.668;2023-07-02T00:36:09;100673.84;;;15.84;86.10
71778;BME280;59609;52.430;4.668;2023-07-02T00:38:41;100674.00;;;15.76;86.93
71778;BME280;59609;52.430;4.668;2023-07-02T00:41:08;100671.66;;;15.73;87.61
71778;BME280;59609;52.430;4.668;2023-07-02T00:43:34;100698.25;;;15.95;86.72
71778;BME280;59609;52.430;4.668;2023-07-02T00:45:59;100678.75;;;15.82;86.52
71778;BME280;59609;52.430;4.668;2023-07-02T00:48:25;100700.56;;;15.85;87.69
71778;BME280;59609;52.430;4.668;2023-07-02T00:50:51;100719.41;;;15.90;86.94
71778;BME280;59609;52.430;4.668;2023-07-02T00:53:17;100690.03;;;15.74;86.78
71778;BME280;59609;52.430;4.668;2023-07-02T00:55:42;100645.44;;;15.55;86.28
71778;BME280;59609;52.430;4.668;2023-07-02T00:58:08;100666.91;;;15.67;85.06
71778;BME280;59609;52.430;4.668;2023-07-02T01:00:35;100673.38;;;15.74;84.87
71778;BME280;59609;52.430;4.668;2023-07-02T01:03:02;100651.63;;;15.50;85.83
71778;BME280;59609;52.430;4.668;2023-07-02T01:05:28;100655.66;;;15.48;86.03
71778;BME280;59609;52.430;4.668;2023-07-02T01:08:02;100654.09;;;15.45;85.79
71778;BME280;59609;52.430;4.668;2023-07-02T01:10:27;100707.19;;;15.84;85.13
71778;BME280;59609;52.430;4.668;2023-07-02T01:12:54;100666.16;;;15.52;85.48
71778;BME280;59609;52.430;4.668;2023-07-02T01:15:20;100706.53;;;15.82;84.66
71778;BME280;59609;52.430;4.668;2023-07-02T01:17:47;100711.22;;;15.82;84.46
71778;BME280;59609;52.430;4.668;2023-07-02T01:20:14;100692.31;;;15.64;84.70
71778;BME280;59609;52.430;4.668;2023-07-02T01:22:40;100682.91;;;15.65;84.85
71778;BME280;59609;52.430;4.668;2023-07-02T01:25:06;100714.59;;;15.71;84.47
71778;BME280;59609;52.430;4.668;2023-07-02T01:27:33;100730.78;;;15.67;86.00
71778;BME280;59609;52.430;4.668;2023-07-02T01:30:00;100725.19;;;15.61;86.13
71778;BME280;59609;52.430;4.668;2023-07-02T01:32:25;100711.84;;;15.50;87.18
71778;BME280;59609;52.430;4.668;2023-07-02T01:34:51;100698.44;;;15.53;86.80
71778;BME280;59609;52.430;4.668;2023-07-02T01:37:19;100722.25;;;15.69;87.46
71778;BME280;59609;52.430;4.668;2023-07-02T01:39:45;100696.50;;;15.54;87.36
71778;BME280;59609;52.430;4.668;2023-07-02T01:42:12;100721.16;;;15.63;87.99
71778;BME280;59609;52.430;4.668;2023-07-02T01:44:38;100714.13;;;15.67;87.73
71778;BME280;59609;52.430;4.668;2023-07-02T01:47:04;100713.91;;;15.69;87.10
71778;BME280;59609;52.430;4.668;2023-07-02T01:49:30;100717.56;;;15.69;86.77
71778;BME280;59609;52.430;4.668;2023-07-02T01:51:56;100723.25;;;15.61;87.60
71778;BME280;59609;52.430;4.668;2023-07-02T01:54:25;100720.69;;;15.60;86.54
71778;BME280;59609;52.430;4.668;2023-07-02T01:56:52;100724.97;;;15.62;86.60
71778;BME280;59609;52.430;4.668;2023-07-02T01:59:17;100726.66;;;15.57;87.43
71778;BME280;59609;52.430;4.668;2023-07-02T02:01:43;100718.06;;;15.52;88.29
71778;BME280;59609;52.430;4.668;2023-07-02T02:04:09;100694.19;;;15.36;88.23
71778;BME280;59609;52.430;4.668;2023-07-02T02:06:35;100711.13;;;15.41;87.99
71778;BME280;59609;52.430;4.668;2023-07-02T02:09:01;100719.50;;;15.48;88.37
71778;BME280;59609;52.430;4.668;2023-07-02T02:11:29;100719.31;;;15.49;88.13
71778;BME280;59609;52.430;4.668;2023-07-02T02:13:54;100690.47;;;15.22;89.41
71778;BME280;59609;52.430;4.668;2023-07-02T02:16:20;100707.69;;;15.39;88.77
71778;BME280;59609;52.430;4.668;2023-07-02T02:18:46;100690.28;;;15.24;88.35
71778;BME280;59609;52.430;4.668;2023-07-02T02:21:11;100674.84;;;15.21;87.56
71778;BME280;59609;52.430;4.668;2023-07-02T02:23:37;100722.28;;;15.48;85.72
71778;BME280;59609;52.430;4.668;2023-07-02T02:26:02;100664.78;;;15.14;85.83
71778;BME280;59609;52.430;4.668;2023-07-02T02:28:27;100724.59;;;15.44;87.10
71778;BME280;59609;52.430;4.668;2023-07-02T02:30:53;100719.84;;;15.38;87.72
71778;BME280;59609;52.430;4.668;2023-07-02T02:33:18;100685.97;;;15.21;88.60
71778;BME280;59609;52.430;4.668;2023-07-02T02:35:44;100731.84;;;15.45;88.56
71778;BME280;59609;52.430;4.668;2023-07-02T02:38:10;100735.66;;;15.37;88.61
71778;BME280;59609;52.430;4.668;2023-07-02T02:40:36;100720.91;;;15.37;86.80
71778;BME280;59609;52.430;4.668;2023-07-02T02:43:01;100717.41;;;15.28;86.47
71778;BME280;59609;52.430;4.668;2023-07-02T02:45:27;100730.81;;;15.25;87.62
71778;BME280;59609;52.430;4.668;2023-07-02T02:47:52;100728.28;;;15.23;88.04
71778;BME280;59609;52.430;4.668;2023-07-02T02:50:18;100724.75;;;15.15;87.76
71778;BME280;59609;52.430;4.668;2023-07-02T02:52:43;100747.59;;;15.38;87.31
71778;BME280;59609;52.430;4.668;2023-07-02T02:55:09;100737.56;;;15.37;87.25
71778;BME280;59609;52.430;4.668;2023-07-02T02:57:38;100736.25;;;15.33;86.39
71778;BME280;59609;52.430;4.668;2023-07-02T03:00:04;100726.47;;;15.16;87.15
71778;BME280;59609;52.430;4.668;2023-07-02T03:02:30;100735.56;;;15.24;86.74
71778;BME280;59609;52.430;4.668;2023-07-02T03:04:55;100728.44;;;15.22;86.92
71778;BME280;59609;52.430;4.668;2023-07-02T03:07:22;100744.13;;;15.29;88.14
71778;BME280;59609;52.430;4.668;2023-07-02T03:09:47;100761.69;;;15.36;88.45
71778;BME280;59609;52.430;4.668;2023-07-02T03:12:13;100702.72;;;15.07;88.52
71778;BME280;59609;52.430;4.668;2023-07-02T03:14:38;100715.13;;;15.11;88.42
71778;BME280;59609;52.430;4.668;2023-07-02T03:17:04;100737.97;;;15.13;89.64
71778;BME280;59609;52.430;4.668;2023-07-02T03:19:29;100750.88;;;15.20;90.82
71778;BME280;59609;52.430;4.668;2023-07-02T03:21:55;100724.38;;;14.97;91.05
71778;BME280;59609;52.430;4.668;2023-07-02T03:24:20;100749.56;;;15.16;91.39
71778;BME280;59609;52.430;4.668;2023-07-02T03:26:46;100735.78;;;15.08;91.95
71778;BME280;59609;52.430;4.668;2023-07-02T03:29:13;100751.28;;;15.17;91.58
71778;BME280;59609;52.430;4.668;2023-07-02T03:31:39;100726.75;;;15.00;91.47
71778;BME280;59609;52.430;4.668;2023-07-02T03:34:07;100762.56;;;15.16;92.15
71778;BME280;59609;52.430;4.668;2023-07-02T03:36:33;100752.03;;;15.11;91.77
71778;BME280;59609;52.430;4.668;2023-07-02T03:38:58;100765.75;;;15.13;92.60
71778;BME280;59609;52.430;4.668;2023-07-02T03:41:23;100756.38;;;15.14;91.70
71778;BME280;59609;52.430;4.668;2023-07-02T03:43:49;100745.13;;;15.01;92.47
71778;BME280;59609;52.430;4.668;2023-07-02T03:46:14;100757.94;;;15.02;93.56
71778;BME280;59609;52.430;4.668;2023-07-02T03:48:40;100767.13;;;15.02;93.49
71778;BME280;59609;52.430;4.668;2023-07-02T03:51:06;100746.31;;;14.91;93.69
71778;BME280;59609;52.430;4.668;2023-07-02T03:53:31;100768.44;;;15.06;94.14
71778;BME280;59609;52.430;4.668;2023-07-02T03:55:57;100782.78;;;15.10;94.13
71778;BME280;59609;52.430;4.668;2023-07-02T03:58:22;100744.38;;;14.92;93.85
71778;BME280;59609;52.430;4.668;2023-07-02T04:00:48;100775.31;;;15.10;93.02
71778;BME280;59609;52.430;4.668;2023-07-02T04:03:15;100774.47;;;15.10;92.66
71778;BME280;59609;52.430;4.668;2023-07-02T04:05:41;100773.00;;;15.14;92.75
71778;BME280;59609;52.430;4.668;2023-07-02T04:08:07;100769.72;;;15.04;93.17
71778;BME280;59609;52.430;4.668;2023-07-02T04:10:32;100752.13;;;14.97;94.01
71778;BME280;59609;52.430;4.668;2023-07-02T04:12:58;100781.19;;;15.22;92.75
71778;BME280;59609;52.430;4.668;2023-07-02T04:15:23;100794.88;;;15.23;93.43
71778;BME280;59609;52.430;4.668;2023-07-02T04:17:50;100785.88;;;15.21;94.39
71778;BME280;59609;52.430;4.668;2023-07-02T04:20:16;100796.34;;;15.19;94.26
71778;BME280;59609;52.430;4.668;2023-07-02T04:22:46;100778.16;;;15.17;93.86
71778;BME280;59609;52.430;4.668;2023-07-02T04:25:12;100762.19;;;14.98;93.96
71778;BME280;59609;52.430;4.668;2023-07-02T04:27:42;100794.41;;;15.20;92.72
71778;BME280;59609;52.430;4.668;2023-07-02T04:30:08;100807.09;;;15.29;92.42
71778;BME280;59609;52.430;4.668;2023-07-02T04:32:35;100797.09;;;15.34;92.74
71778;BME280;59609;52.430;4.668;2023-07-02T04:35:01;100803.00;;;15.46;91.09
71778;BME280;59609;52.430;4.668;2023-07-02T04:37:27;100796.00;;;15.29;92.56
71778;BME280;59609;52.430;4.668;2023-07-02T04:39:55;100803.34;;;15.36;91.91
71778;BME280;59609;52.430;4.668;2023-07-02T04:42:20;100822.19;;;15.41;91.68
71778;BME280;59609;52.430;4.668;2023-07-02T04:44:46;100795.59;;;15.32;90.96
71778;BME280;59609;52.430;4.668;2023-07-02T04:47:11;100820.06;;;15.43;91.32
71778;BME280;59609;52.430;4.668;2023-07-02T04:49:39;100819.00;;;15.44;91.97
71778;BME280;59609;52.430;4.668;2023-07-02T04:52:05;100814.84;;;15.55;90.76
71778;BME280;59609;52.430;4.668;2023-07-02T04:54:30;100792.28;;;15.43;90.13
71778;BME280;59609;52.430;4.668;2023-07-02T04:56:56;100818.47;;;15.76;89.61
71778;BME280;59609;52.430;4.668;2023-07-02T04:59:26;100831.59;;;16.92;85.14
71778;BME280;59609;52.430;4.668;2023-07-02T05:01:51;100825.41;;;16.21;87.21
71778;BME280;59609;52.430;4.668;2023-07-02T05:04:17;100805.09;;;15.86;88.50
71778;BME280;59609;52.430;4.668;2023-07-02T05:06:43;100821.72;;;16.08;88.98
71778;BME280;59609;52.430;4.668;2023-07-02T05:09:09;100803.22;;;15.93;89.00
71778;BME280;59609;52.430;4.668;2023-07-02T05:11:34;100808.78;;;15.93;90.28
71778;BME280;59609;52.430;4.668;2023-07-02T05:14:00;100813.91;;;15.96;90.26
71778;BME280;59609;52.430;4.668;2023-07-02T05:16:25;100796.03;;;15.78;90.62
71778;BME280;59609;52.430;4.668;2023-07-02T05:18:51;100798.38;;;15.74;91.17
71778;BME280;59609;52.430;4.668;2023-07-02T05:21:20;100813.16;;;15.81;89.97
71778;BME280;59609;52.430;4.668;2023-07-02T05:23:46;100846.63;;;16.29;87.86
71778;BME280;59609;52.430;4.668;2023-07-02T05:26:12;100807.63;;;16.16;87.90
71778;BME280;59609;52.430;4.668;2023-07-02T05:28:37;100823.03;;;16.93;83.28
71778;BME280;59609;52.430;4.668;2023-07-02T05:31:03;100846.75;;;16.48;85.55
71778;BME280;59609;52.430;4.668;2023-07-02T05:33:28;100821.50;;;16.09;87.12
71778;BME280;59609;52.430;4.668;2023-07-02T05:35:54;100798.06;;;15.90;88.57
71778;BME280;59609;52.430;4.668;2023-07-02T05:38:19;100852.47;;;16.34;87.71
71778;BME280;59609;52.430;4.668;2023-07-02T05:40:45;100854.03;;;16.15;88.12
71778;BME280;59609;52.430;4.668;2023-07-02T05:43:11;100857.56;;;16.30;88.11
71778;BME280;59609;52.430;4.668;2023-07-02T05:45:37;100840.88;;;16.30;87.68
71778;BME280;59609;52.430;4.668;2023-07-02T05:48:02;100842.66;;;16.44;86.60
71778;BME280;59609;52.430;4.668;2023-07-02T05:50:28;100833.22;;;16.73;85.27
71778;BME280;59609;52.430;4.668;2023-07-02T05:52:54;100863.16;;;16.71;85.82
71778;BME280;59609;52.430;4.668;2023-07-02T05:55:19;100850.09;;;16.65;86.58
71778;BME280;59609;52.430;4.668;2023-07-02T05:57:45;100875.44;;;16.49;86.70
71778;BME280;59609;52.430;4.668;2023-07-02T06:00:11;100857.75;;;16.57;86.21
71778;BME280;59609;52.430;4.668;2023-07-02T06:02:37;100869.78;;;16.64;86.20
71778;BME280;59609;52.430;4.668;2023-07-02T06:05:03;100859.06;;;16.33;87.08
71778;BME280;59609;52.430;4.668;2023-07-02T06:07:29;100872.16;;;16.67;85.98
71778;BME280;59609;52.430;4.668;2023-07-02T06:09:54;100857.75;;;16.97;85.20
71778;BME280;59609;52.430;4.668;2023-07-02T06:12:20;100883.06;;;17.16;84.00
71778;BME280;59609;52.430;4.668;2023-07-02T06:14:46;100878.53;;;17.08;83.68
71778;BME280;59609;52.430;4.668;2023-07-02T06:17:11;100866.19;;;17.30;84.12
71778;BME280;59609;52.430;4.668;2023-07-02T06:19:37;100885.25;;;17.27;84.14
71778;BME280;59609;52.430;4.668;2023-07-02T06:22:03;100879.03;;;17.31;83.28
71778;BME280;59609;52.430;4.668;2023-07-02T06:24:29;100858.66;;;17.11;82.51
71778;BME280;59609;52.430;4.668;2023-07-02T06:26:55;100852.63;;;17.01;82.44
71778;BME280;59609;52.430;4.668;2023-07-02T06:29:22;100861.63;;;17.10;83.41
71778;BME280;59609;52.430;4.668;2023-07-02T06:31:51;100876.56;;;16.95;82.48
71778;BME280;59609;52.430;4.668;2023-07-02T06:34:19;100868.72;;;16.71;82.94
71778;BME280;59609;52.430;4.668;2023-07-02T06:36:49;100903.63;;;16.67;83.66
71778;BME280;59609;52.430;4.668;2023-07-02T06:39:36;100888.63;;;17.16;81.38
71778;BME280;59609;52.430;4.668;2023-07-02T06:42:07;100887.47;;;17.51;81.31
71778;BME280;59609;52.430;4.668;2023-07-02T06:44:32;100891.38;;;17.03;82.60
71778;BME280;59609;52.430;4.668;2023-07-02T06:47:03;100917.72;;;17.00;82.30
71778;BME280;59609;52.430;4.668;2023-07-02T06:49:29;100871.03;;;17.02;82.73
71778;BME280;59609;52.430;4.668;2023-07-02T06:51:54;100900.97;;;17.47;82.75
71778;BME280;59609;52.430;4.668;2023-07-02T06:54:21;100881.53;;;17.93;80.93
71778;BME280;59609;52.430;4.668;2023-07-02T06:56:46;100913.25;;;17.79;80.37
71778;BME280;59609;52.430;4.668;2023-07-02T06:59:12;100899.56;;;18.17;80.37
71778;BME280;59609;52.430;4.668;2023-07-02T07:01:38;100887.75;;;17.82;80.58
71778;BME280;59609;52.430;4.668;2023-07-02T07:04:04;100894.44;;;18.08;81.32
71778;BME280;59609;52.430;4.668;2023-07-02T07:06:30;100918.09;;;17.44;81.11
71778;BME280;59609;52.430;4.668;2023-07-02T07:08:57;100926.34;;;17.79;80.51
71778;BME280;59609;52.430;4.668;2023-07-02T07:11:22;100943.59;;;17.48;80.66
71778;BME280;59609;52.430;4.668;2023-07-02T07:13:48;100910.69;;;17.78;80.17
71778;BME280;59609;52.430;4.668;2023-07-02T07:16:13;100940.09;;;18.07;80.50
71778;BME280;59609;52.430;4.668;2023-07-02T07:18:40;100946.97;;;18.24;79.22
71778;BME280;59609;52.430;4.668;2023-07-02T07:21:05;100955.78;;;18.14;78.97
71778;BME280;59609;52.430;4.668;2023-07-02T07:23:38;100925.28;;;17.93;78.50
71778;BME280;59609;52.430;4.668;2023-07-02T07:26:05;100950.63;;;18.24;77.71
71778;BME280;59609;52.430;4.668;2023-07-02T07:28:32;100952.75;;;18.16;79.26
71778;BME280;59609;52.430;4.668;2023-07-02T07:31:09;100939.25;;;18.19;79.25
71778;BME280;59609;52.430;4.668;2023-07-02T07:34:06;100968.19;;;18.25;78.95
71778;BME280;59609;52.430;4.668;2023-07-02T07:37:03;100967.38;;;18.44;78.38
71778;BME280;59609;52.430;4.668;2023-07-02T07:39:36;100943.53;;;18.68;77.67
71778;BME280;59609;52.430;4.668;2023-07-02T07:42:50;100974.44;;;18.40;77.94
71778;BME280;59609;52.430;4.668;2023-07-02T07:46:21;100975.50;;;18.85;77.00
71778;BME280;59609;52.430;4.668;2023-07-02T07:49:56;100974.66;;;18.58;76.04
71778;BME280;59609;52.430;4.668;2023-07-02T07:52:49;100974.84;;;18.83;75.86
71778;BME280;59609;52.430;4.668;2023-07-02T07:55:40;100925.53;;;18.31;72.85
71778;BME280;59609;52.430;4.668;2023-07-02T07:59:23;100982.16;;;18.84;75.09
71778;BME280;59609;52.430;4.668;2023-07-02T08:03:02;100989.47;;;18.72;75.45
71778;BME280;59609;52.430;4.668;2023-07-02T08:06:32;100957.03;;;17.98;77.00
71778;BME280;59609;52.430;4.668;2023-07-02T08:09:59;100987.13;;;18.62;75.11
71778;BME280;59609;52.430;4.668;2023-07-02T08:13:24;100978.72;;;18.42;75.16
71778;BME280;59609;52.430;4.668;2023-07-02T08:16:14;101015.88;;;18.76;75.45
71778;BME280;59609;52.430;4.668;2023-07-02T08:19:56;100984.31;;;18.75;74.41
71778;BME280;59609;52.430;4.668;2023-07-02T08:22:30;100965.47;;;18.58;74.54
71778;BME280;59609;52.430;4.668;2023-07-02T08:24:55;100984.94;;;18.90;73.25
71778;BME280;59609;52.430;4.668;2023-07-02T08:27:21;100972.31;;;18.55;73.83
71778;BME280;59609;52.430;4.668;2023-07-02T08:29:47;100987.53;;;18.39;76.01
71778;BME280;59609;52.430;4.668;2023-07-02T08:32:12;101005.59;;;18.70;75.42
71778;BME280;59609;52.430;4.668;2023-07-02T08:34:38;100981.75;;;18.21;76.11
71778;BME280;59609;52.430;4.668;2023-07-02T08:37:04;100970.94;;;17.92;76.69
71778;BME280;59609;52.430;4.668;2023-07-02T08:39:29;100972.72;;;18.39;76.07
71778;BME280;59609;52.430;4.668;2023-07-02T08:41:55;101019.91;;;19.06;73.18
71778;BME280;59609;52.430;4.668;2023-07-02T08:44:21;100986.22;;;18.94;70.52
71778;BME280;59609;52.430;4.668;2023-07-02T08:46:47;100979.56;;;18.95;73.56
71778;BME280;59609;52.430;4.668;2023-07-02T08:49:16;100971.78;;;19.17;70.58
71778;BME280;59609;52.430;4.668;2023-07-02T08:51:45;100981.28;;;19.61;66.23
71778;BME280;59609;52.430;4.668;2023-07-02T08:54:11;101019.88;;;19.83;65.51
71778;BME280;59609;52.430;4.668;2023-07-02T08:56:38;101024.16;;;19.86;66.20
71778;BME280;59609;52.430;4.668;2023-07-02T08:59:06;100995.06;;;19.56;66.62
71778;BME280;59609;52.430;4.668;2023-07-02T09:01:32;101032.19;;;20.14;66.93
71778;BME280;59609;52.430;4.668;2023-07-02T09:03:59;101028.91;;;20.23;67.50
71778;BME280;59609;52.430;4.668;2023-07-02T09:06:28;101025.47;;;19.83;67.63
71778;BME280;59609;52.430;4.668;2023-07-02T09:09:03;100975.38;;;19.31;68.66
71778;BME280;59609;52.430;4.668;2023-07-02T09:11:29;101012.78;;;19.30;68.82
71778;BME280;59609;52.430;4.668;2023-07-02T09:13:54;101016.53;;;18.91;69.85
71778;BME280;59609;52.430;4.668;2023-07-02T09:16:30;101049.63;;;19.71;68.39
71778;BME280;59609;52.430;4.668;2023-07-02T09:19:03;101041.88;;;18.83;71.18
71778;BME280;59609;52.430;4.668;2023-07-02T09:21:46;101011.97;;;19.03;71.15
71778;BME280;59609;52.430;4.668;2023-07-02T09:26:47;101016.75;;;18.57;69.30
71778;BME280;59609;52.430;4.668;2023-07-02T09:29:37;101026.41;;;18.93;71.65
71778;BME280;59609;52.430;4.668;2023-07-02T09:32:04;101028.66;;;19.36;69.30
71778;BME280;59609;52.430;4.668;2023-07-02T09:34:34;101045.34;;;19.62;68.03
71778;BME280;59609;52.430;4.668;2023-07-02T09:37:01;101009.13;;;19.29;67.17
71778;BME280;59609;52.430;4.668;2023-07-02T09:39:29;101025.50;;;19.13;69.58
71778;BME280;59609;52.430;4.668;2023-07-02T09:41:56;101047.63;;;19.21;69.06
71778;BME280;59609;52.430;4.668;2023-07-02T09:44:27;101015.44;;;18.33;70.98
71778;BME280;59609;52.430;4.668;2023-07-02T09:47:05;101007.69;;;19.00;69.81
71778;BME280;59609;52.430;4.668;2023-07-02T09:49:41;101049.69;;;20.02;67.72
71778;BME280;59609;52.430;4.668;2023-07-02T09:52:08;101043.75;;;20.24;69.02
71778;BME280;59609;52.430;4.668;2023-07-02T09:54:35;101049.28;;;20.37;65.97
71778;BME280;59609;52.430;4.668;2023-07-02T09:57:02;101022.22;;;19.42;66.06
71778;BME280;59609;52.430;4.668;2023-07-02T09:59:28;101036.13;;;19.55;67.32
71778;BME280;59609;52.430;4.668;2023-07-02T10:01:54;101045.91;;;20.22;65.96
71778;BME280;59609;52.430;4.668;2023-07-02T10:04:21;101049.50;;;19.97;64.99
71778;BME280;59609;52.430;4.668;2023-07-02T10:06:53;101052.63;;;19.70;65.66
71778;BME280;59609;52.430;4.668;2023-07-02T10:09:20;101050.00;;;19.88;66.27
71778;BME280;59609;52.430;4.668;2023-07-02T10:11:47;101052.19;;;19.73;66.43
71778;BME280;59609;52.430;4.668;2023-07-02T10:14:12;101046.47;;;19.61;66.03
71778;BME280;59609;52.430;4.668;2023-07-02T10:16:55;101047.06;;;19.70;65.22
71778;BME280;59609;52.430;4.668;2023-07-02T10:19:21;101081.03;;;20.18;63.42
71778;BME280;59609;52.430;4.668;2023-07-02T10:21:48;101064.75;;;20.01;64.98
71778;BME280;59609;52.430;4.668;2023-07-02T10:24:25;101041.84;;;19.80;62.79
71778;BME280;59609;52.430;4.668;2023-07-02T10:26:55;101038.56;;;19.89;63.69
71778;BME280;59609;52.430;4.668;2023-07-02T10:29:22;101035.91;;;19.63;64.80
71778;BME280;59609;52.430;4.668;2023-07-02T10:31:49;101061.16;;;19.94;63.57
71778;BME280;59609;52.430;4.668;2023-07-02T10:34:15;101036.28;;;19.73;63.37
71778;BME280;59609;52.430;4.668;2023-07-02T10:36:40;101074.81;;;19.71;65.78
71778;BME280;59609;52.430;4.668;2023-07-02T10:39:06;101075.31;;;19.99;62.46
71778;BME280;59609;52.430;4.668;2023-07-02T10:41:34;101069.91;;;19.53;63.05
71778;BME280;59609;52.430;4.668;2023-07-02T10:44:07;101053.31;;;19.59;61.42
71778;BME280;59609;52.430;4.668;2023-07-02T10:46:33;101066.97;;;19.86;62.51
71778;BME280;59609;52.430;4.668;2023-07-02T10:48:58;101080.56;;;19.76;61.94
71778;BME280;59609;52.430;4.668;2023-07-02T10:51:24;101060.53;;;19.86;60.67
71778;BME280;59609;52.430;4.668;2023-07-02T10:54:02;101087.25;;;20.20;61.10
71778;BME280;59609;52.430;4.668;2023-07-02T10:56:30;101072.50;;;20.69;61.04
71778;BME280;59609;52.430;4.668;2023-07-02T10:58:55;101083.69;;;21.25;59.88
71778;BME280;59609;52.430;4.668;2023-07-02T11:01:29;101088.00;;;20.96;59.73
71778;BME280;59609;52.430;4.668;2023-07-02T11:04:03;101067.25;;;20.79;57.67
71778;BME280;59609;52.430;4.668;2023-07-02T11:06:31;101070.69;;;21.30;57.35
71778;BME280;59609;52.430;4.668;2023-07-02T11:08:58;101094.75;;;20.88;55.68
71778;BME280;59609;52.430;4.668;2023-07-02T11:11:24;101071.09;;;20.60;55.20
71778;BME280;59609;52.430;4.668;2023-07-02T11:13:50;101069.44;;;20.45;56.38
71778;BME280;59609;52.430;4.668;2023-07-02T11:16:25;101085.41;;;21.01;56.61
71778;BME280;59609;52.430;4.668;2023-07-02T11:19:06;101065.72;;;20.83;55.72
71778;BME280;59609;52.430;4.668;2023-07-02T11:21:32;101108.25;;;20.73;56.20
71778;BME280;59609;52.430;4.668;2023-07-02T11:24:02;101067.81;;;20.38;56.00
71778;BME280;59609;52.430;4.668;2023-07-02T11:26:39;101051.75;;;20.51;55.80
71778;BME280;59609;52.430;4.668;2023-07-02T11:29:10;101101.56;;;20.74;57.08
71778;BME280;59609;52.430;4.668;2023-07-02T11:31:36;101106.63;;;21.58;55.75
71778;BME280;59609;52.430;4.668;2023-07-02T11:34:11;101112.69;;;21.55;55.12
71778;BME280;59609;52.430;4.668;2023-07-02T11:36:37;101116.81;;;21.10;53.20
71778;BME280;59609;52.430;4.668;2023-07-02T11:39:02;101079.72;;;20.58;55.35
71778;BME280;59609;52.430;4.668;2023-07-02T11:41:37;101098.47;;;21.14;55.55
71778;BME280;59609;52.430;4.668;2023-07-02T11:44:03;101090.59;;;20.97;55.60
71778;BME280;59609;52.430;4.668;2023-07-02T11:46:28;101104.53;;;21.11;53.85
71778;BME280;59609;52.430;4.668;2023-07-02T11:48:53;101103.91;;;21.02;53.76
71778;BME280;59609;52.430;4.668;2023-07-02T11:51:19;101088.53;;;20.86;54.66
71778;BME280;59609;52.430;4.668;2023-07-02T11:53:44;101096.78;;;21.31;54.28
71778;BME280;59609;52.430;4.668;2023-07-02T11:56:10;101051.13;;;20.99;53.66
71778;BME280;59609;52.430;4.668;2023-07-02T11:58:35;101109.53;;;21.27;55.59
71778;BME280;59609;52.430;4.668;2023-07-02T12:01:00;101113.47;;;22.17;52.45
71778;BME280;59609;52.430;4.668;2023-07-02T12:03:26;101095.16;;;21.60;51.95
71778;BME280;59609;52.430;4.668;2023-07-02T12:05:51;101112.72;;;20.81;52.71
71778;BME280;59609;52.430;4.668;2023-07-02T12:08:17;101062.75;;;21.02;54.03
71778;BME280;59609;52.430;4.668;2023-07-02T12:10:42;101087.84;;;21.77;52.94
71778;BME280;59609;52.430;4.668;2023-07-02T12:13:08;101077.47;;;21.95;51.85
71778;BME280;59609;52.430;4.668;2023-07-02T12:15:34;101112.06;;;21.53;53.40
71778;BME280;59609;52.430;4.668;2023-07-02T12:18:01;101100.25;;;20.77;53.87
71778;BME280;59609;52.430;4.668;2023-07-02T12:20:27;101104.41;;;20.92;53.51
71778;BME280;59609;52.430;4.668;2023-07-02T12:22:53;101091.44;;;21.47;56.34
71778;BME280;59609;52.430;4.668;2023-07-02T12:25:19;101104.66;;;21.16;56.25
71778;BME280;59609;52.430;4.668;2023-07-02T12:27:44;101134.41;;;22.32;53.68
71778;BME280;59609;52.430;4.668;2023-07-02T12:30:10;101115.41;;;20.94;56.13
71778;BME280;59609;52.430;4.668;2023-07-02T12:32:38;101113.47;;;20.25;57.93
71778;BME280;59609;52.430;4.668;2023-07-02T12:35:03;101111.19;;;20.85;59.03
71778;BME280;59609;52.430;4.668;2023-07-02T12:37:29;101116.56;;;21.36;56.84
71778;BME280;59609;52.430;4.668;2023-07-02T12:39:54;101153.13;;;21.47;56.28
71778;BME280;59609;52.430;4.668;2023-07-02T12:42:20;101137.16;;;21.66;56.54
71778;BME280;59609;52.430;4.668;2023-07-02T12:44:45;101151.66;;;22.36;54.92
71778;BME280;59609;52.430;4.668;2023-07-02T12:47:11;101125.34;;;22.00;54.93
71778;BME280;59609;52.430;4.668;2023-07-02T12:49:36;101154.91;;;22.21;55.18
71778;BME280;59609;52.430;4.668;2023-07-02T12:52:01;101140.16;;;22.08;54.21
71778;BME280;59609;52.430;4.668;2023-07-02T12:54:27;101138.22;;;21.47;54.44
71778;BME280;59609;52.430;4.668;2023-07-02T12:56:54;101139.38;;;22.00;54.02
71778;BME280;59609;52.430;4.668;2023-07-02T12:59:19;101154.59;;;21.00;55.43
71778;BME280;59609;52.430;4.668;2023-07-02T13:01:45;101126.88;;;21.17;54.58
71778;BME280;59609;52.430;4.668;2023-07-02T13:04:10;101122.44;;;21.89;54.16